Time;durP1;ratioP1;P1;durP2;ratioP2;P2;SDS_P1;SDS_P2;PMS_P1;PMS_P2;Temp;Humidity;BMP_temperature;BMP_pressure;BME280_temperature;BME280_humidity;BME280_pressure;Samples;Min_cycle;Max_cycle;Signal;HPM_P1;HPM_P2
2022/01/31 00:01:52;;;;;;;1.83;1.27;;;0.60;73.10;;;;;;6263254;28;20273;-75
2022/01/31 00:04:57;;;;;;;7.00;1.40;;;0.60;73.00;;;;;;6263051;28;20298;-75
2022/01/31 00:08:05;;;;;;;1.33;1.33;;;0.60;73.50;;;;;;6263280;28;20579;-75
2022/01/31 00:11:12;;;;;;;2.07;1.20;;;0.60;73.50;;;;;;6262786;28;20467;-75
2022/01/31 00:14:30;;;;;;;2.30;1.27;;;0.60;73.70;;;;;;6263040;28;20293;-76
2022/01/31 00:17:36;;;;;;;1.47;1.30;;;0.50;73.80;;;;;;6263443;28;20281;-76
2022/01/31 00:20:41;;;;;;;1.20;1.20;;;0.60;74.70;;;;;;6262720;28;20265;-76
2022/01/31 00:23:48;;;;;;;1.30;1.20;;;0.60;74.60;;;;;;6263313;28;20296;-76
2022/01/31 00:26:53;;;;;;;1.43;1.20;;;0.50;74.30;;;;;;6263386;28;20272;-76
2022/01/31 00:29:58;;;;;;;1.23;1.23;;;0.50;74.00;;;;;;6262612;28;20300;-76
2022/01/31 00:33:04;;;;;;;1.67;1.20;;;0.50;74.30;;;;;;6262526;28;20298;-76
2022/01/31 00:36:10;;;;;;;1.20;1.10;;;0.50;74.80;;;;;;6262890;28;20268;-75
2022/01/31 00:39:16;;;;;;;1.23;1.23;;;0.50;74.70;;;;;;6263267;28;20301;-75
2022/01/31 00:42:23;;;;;;;4.93;1.40;;;0.50;75.00;;;;;;6278092;28;20454;-75
2022/01/31 00:45:31;;;;;;;1.87;1.37;;;0.50;74.20;;;;;;6261938;28;20276;-76
2022/01/31 00:48:42;;;;;;;3.13;1.20;;;0.40;74.50;;;;;;6251694;28;20304;-76
2022/01/31 00:51:47;;;;;;;1.60;1.50;;;0.40;74.50;;;;;;6238197;28;20274;-75
2022/01/31 00:54:54;;;;;;;1.50;1.40;;;0.40;74.80;;;;;;6256410;28;20300;-76
2022/01/31 00:58:00;;;;;;;2.97;1.20;;;0.40;74.60;;;;;;6257298;28;20301;-75
2022/01/31 01:01:05;;;;;;;1.30;1.30;;;0.40;75.30;;;;;;6237286;28;20269;-76
2022/01/31 01:04:12;;;;;;;1.30;1.20;;;0.40;75.10;;;;;;6251609;28;20296;-76
2022/01/31 01:07:19;;;;;;;1.70;1.30;;;0.50;74.70;;;;;;6277155;28;20272;-75
2022/01/31 01:10:26;;;;;;;2.37;1.40;;;0.40;74.90;;;;;;6236293;28;20294;-75
2022/01/31 01:13:32;;;;;;;2.20;1.20;;;0.40;74.90;;;;;;6261391;28;20585;-75
2022/01/31 01:16:37;;;;;;;0.90;0.90;;;0.40;74.70;;;;;;6260385;28;20273;-75
2022/01/31 01:19:43;;;;;;;1.77;1.27;;;0.40;74.40;;;;;;6277383;28;20296;-75
2022/01/31 01:22:48;;;;;;;2.47;1.20;;;0.40;75.10;;;;;;6260143;28;20297;-76
2022/01/31 01:25:55;;;;;;;2.07;1.10;;;0.40;75.00;;;;;;6261459;28;20581;-75
2022/01/31 01:29:01;;;;;;;1.47;1.47;;;0.40;75.50;;;;;;6261320;28;20301;-75
2022/01/31 01:32:10;;;;;;;2.23;1.23;;;0.30;75.30;;;;;;6277289;28;20274;-75
2022/01/31 01:35:15;;;;;;;1.30;1.10;;;0.30;75.10;;;;;;6277408;28;20303;-75
2022/01/31 01:38:27;;;;;;;1.40;1.40;;;0.30;75.60;;;;;;6261501;28;20293;-75
2022/01/31 01:41:34;;;;;;;2.23;1.23;;;0.30;75.30;;;;;;6268935;28;20272;-75
2022/01/31 01:44:45;;;;;;;1.40;1.33;;;0.30;75.50;;;;;;6267110;28;20298;-75
2022/01/31 01:47:52;;;;;;;1.50;1.30;;;0.30;76.00;;;;;;6259154;28;20584;-76
2022/01/31 01:50:58;;;;;;;3.10;1.47;;;0.20;76.20;;;;;;6260238;28;20291;-75
2022/01/31 01:54:04;;;;;;;1.23;1.23;;;0.10;76.90;;;;;;6264349;28;20301;-76
2022/01/31 01:57:12;;;;;;;2.53;1.30;;;0.10;77.10;;;;;;6261111;28;20271;-75
2022/01/31 02:00:25;;;;;;;3.23;1.40;;;0.20;77.20;;;;;;6267280;28;20302;-75
2022/01/31 02:03:32;;;;;;;1.20;1.20;;;0.10;76.60;;;;;;6286071;28;20506;-75
2022/01/31 02:06:40;;;;;;;4.03;1.50;;;0.20;77.70;;;;;;6268217;28;20462;-75
2022/01/31 02:09:53;;;;;;;2.23;1.20;;;0.20;77.30;;;;;;6248661;28;20305;-76
2022/01/31 02:13:05;;;;;;;2.37;1.20;;;0.20;77.90;;;;;;6242540;28;20439;-75
2022/01/31 02:16:36;;;;;;;1.97;1.67;;;0.10;78.20;;;;;;6244814;28;20411;-75
2022/01/31 02:19:54;;;;;;;2.73;1.30;;;0.00;77.80;;;;;;6280109;28;20302;-76
2022/01/31 02:23:07;;;;;;;4.90;1.43;;;0.00;78.40;;;;;;6283939;28;20290;-76
2022/01/31 02:26:17;;;;;;;1.43;1.33;;;0.10;78.10;;;;;;6267563;28;20275;-76
2022/01/31 02:29:28;;;;;;;1.33;1.20;;;0.00;78.20;;;;;;6267307;28;20306;-76
2022/01/31 02:32:34;;;;;;;1.43;1.30;;;0.00;79.00;;;;;;6296543;28;20276;-76
2022/01/31 02:35:40;;;;;;;3.20;1.40;;;0.00;78.60;;;;;;6272869;28;20269;-76
2022/01/31 02:38:47;;;;;;;1.30;1.30;;;0.00;78.40;;;;;;6288880;28;20295;-76
2022/01/31 02:41:53;;;;;;;2.93;1.10;;;0.00;78.90;;;;;;6272935;28;20551;-75
2022/01/31 02:44:59;;;;;;;1.40;1.30;;;0.00;79.30;;;;;;6288516;28;20586;-75
2022/01/31 02:48:05;;;;;;;6.43;1.30;;;-0.10;79.30;;;;;;6279462;28;20579;-75
2022/01/31 02:51:20;;;;;;;2.47;1.20;;;-0.10;79.00;;;;;;6265072;28;20543;-75
2022/01/31 02:54:29;;;;;;;1.40;1.30;;;-0.20;79.50;;;;;;6280008;28;20296;-75
2022/01/31 02:57:35;;;;;;;1.23;1.23;;;-0.20;79.90;;;;;;6263355;28;20573;-76
2022/01/31 03:00:41;;;;;;;2.03;1.20;;;-0.30;80.10;;;;;;6265936;28;20281;-75
2022/01/31 03:03:52;;;;;;;1.23;1.20;;;-0.40;80.80;;;;;;6279943;28;20304;-75
2022/01/31 03:06:58;;;;;;;4.73;1.20;;;-0.40;80.80;;;;;;6263539;28;20276;-75
2022/01/31 03:10:06;;;;;;;1.80;1.30;;;-0.40;80.70;;;;;;6263530;28;20306;-75
2022/01/31 03:13:14;;;;;;;1.47;1.37;;;-0.50;81.50;;;;;;6269756;28;20289;-75
2022/01/31 03:16:27;;;;;;;1.30;1.20;;;-0.50;82.00;;;;;;6288295;28;20267;-75
2022/01/31 03:19:53;;;;;;;2.10;1.27;;;-0.50;82.00;;;;;;6289131;28;20296;-75
2022/01/31 03:22:59;;;;;;;4.87;1.30;;;-0.50;82.10;;;;;;6274639;28;20292;-76
2022/01/31 03:26:06;;;;;;;2.97;1.20;;;-0.50;82.00;;;;;;6239286;28;20271;-75
2022/01/31 03:29:13;;;;;;;2.57;1.20;;;-0.50;82.20;;;;;;6253284;28;20300;-76
2022/01/31 03:32:19;;;;;;;2.07;1.40;;;-0.50;82.40;;;;;;6263831;28;20303;-76
2022/01/31 03:35:25;;;;;;;1.50;1.40;;;-0.50;82.40;;;;;;6237880;28;20299;-76
2022/01/31 03:38:31;;;;;;;3.63;1.17;;;-0.60;83.50;;;;;;6270123;28;20579;-75
2022/01/31 03:41:38;;;;;;;1.40;1.30;;;-0.60;83.20;;;;;;6238392;28;20280;-76
2022/01/31 03:44:43;;;;;;;2.40;1.30;;;-0.60;83.30;;;;;;6253352;28;20487;-75
2022/01/31 03:47:49;;;;;;;3.50;1.57;;;-0.60;83.70;;;;;;6253528;28;20299;-76
2022/01/31 03:50:55;;;;;;;1.40;1.40;;;-0.60;84.20;;;;;;6254176;28;20299;-76
2022/01/31 03:54:03;;;;;;;1.90;1.30;;;-0.60;83.60;;;;;;6253612;28;20295;-75
2022/01/31 03:57:11;;;;;;;5.00;1.40;;;-0.60;83.70;;;;;;6254248;28;20451;-75
2022/01/31 04:00:37;;;;;;;1.60;1.30;;;-0.50;84.10;;;;;;6239216;28;20279;-75
2022/01/31 04:03:43;;;;;;;2.37;1.10;;;-0.50;84.40;;;;;;6238298;28;20304;-75
2022/01/31 04:06:48;;;;;;;2.27;1.10;;;-0.60;83.80;;;;;;6238640;28;20272;-75
2022/01/31 04:09:54;;;;;;;1.30;1.20;;;-0.50;84.60;;;;;;6238394;28;20299;-75
2022/01/31 04:13:01;;;;;;;1.50;1.40;;;-0.50;85.30;;;;;;6237902;28;20569;-76
2022/01/31 04:16:06;;;;;;;1.30;1.20;;;-0.40;85.10;;;;;;6239097;28;20274;-75
2022/01/31 04:19:11;;;;;;;1.53;1.50;;;-0.40;85.20;;;;;;6253054;28;20295;-75
2022/01/31 04:22:21;;;;;;;3.30;1.30;;;-0.40;86.00;;;;;;6263382;28;20458;-75
2022/01/31 04:25:41;;;;;;;3.13;1.47;;;-0.50;85.20;;;;;;6238879;28;20596;-75
2022/01/31 04:28:50;;;;;;;5.97;1.63;;;-0.50;86.00;;;;;;6238074;28;20471;-76
2022/01/31 04:31:55;;;;;;;3.00;1.50;;;-0.40;86.80;;;;;;6239152;28;20590;-76
2022/01/31 04:35:00;;;;;;;5.07;1.70;;;-0.40;86.40;;;;;;6237758;28;20319;-76
2022/01/31 04:38:06;;;;;;;1.33;1.30;;;-0.50;86.90;;;;;;6243824;28;20297;-76
2022/01/31 04:41:11;;;;;;;1.53;1.33;;;-0.50;87.20;;;;;;6262463;28;20283;-75
2022/01/31 04:44:18;;;;;;;5.07;1.80;;;-0.50;88.30;;;;;;6247147;28;20305;-75
2022/01/31 04:47:23;;;;;;;1.93;1.50;;;-0.50;88.40;;;;;;6253628;28;20299;-75
2022/01/31 04:50:29;;;;;;;1.60;1.50;;;-0.50;88.60;;;;;;6261294;28;20281;-75
2022/01/31 04:53:35;;;;;;;4.17;1.47;;;-0.50;89.10;;;;;;6261929;28;20301;-75
2022/01/31 04:56:42;;;;;;;3.20;1.40;;;-0.50;89.30;;;;;;6262475;28;20271;-75
2022/01/31 04:59:49;;;;;;;1.47;1.40;;;-0.60;89.60;;;;;;6262451;28;20296;-76
2022/01/31 05:02:55;;;;;;;5.63;1.57;;;-0.60;89.90;;;;;;6262113;28;20294;-76
2022/01/31 05:06:00;;;;;;;5.50;1.57;;;-0.50;90.20;;;;;;6261840;28;20270;-75
2022/01/31 05:09:07;;;;;;;4.73;1.60;;;-0.50;90.30;;;;;;6276090;28;20295;-75
2022/01/31 05:12:14;;;;;;;1.53;1.43;;;-0.50;90.30;;;;;;6287141;28;20300;-76
2022/01/31 05:15:21;;;;;;;1.70;1.27;;;-0.40;90.50;;;;;;6286875;28;20291;-75
2022/01/31 05:18:26;;;;;;;2.73;1.60;;;-0.50;90.90;;;;;;6285660;28;20539;-75
2022/01/31 05:21:31;;;;;;;2.17;1.50;;;-0.50;90.80;;;;;;6300049;28;20270;-75
2022/01/31 05:24:36;;;;;;;1.63;1.53;;;-0.50;91.20;;;;;;6310932;28;20311;-75
2022/01/31 05:27:42;;;;;;;2.97;1.40;;;-0.50;91.20;;;;;;6311161;28;20420;-76
2022/01/31 05:30:48;;;;;;;3.97;1.63;;;-0.50;91.40;;;;;;6311372;28;20560;-75
2022/01/31 05:33:53;;;;;;;1.50;1.50;;;-0.50;91.80;;;;;;6311364;28;20321;-76
2022/01/31 05:36:59;;;;;;;4.37;1.37;;;-0.50;91.60;;;;;;6311755;28;20440;-75
2022/01/31 05:40:05;;;;;;;5.07;1.60;;;-0.50;91.50;;;;;;6311484;28;20294;-76
2022/01/31 05:43:13;;;;;;;2.47;1.27;;;-0.50;91.60;;;;;;6310003;28;20291;-75
2022/01/31 05:46:20;;;;;;;2.30;1.33;;;-0.50;92.00;;;;;;6310891;28;20290;-75
2022/01/31 05:49:26;;;;;;;6.20;1.80;;;-0.50;92.00;;;;;;6311281;28;20306;-75
2022/01/31 05:52:31;;;;;;;3.67;1.60;;;-0.50;92.50;;;;;;6310226;28;20289;-76
2022/01/31 05:55:36;;;;;;;3.97;1.33;;;-0.60;92.30;;;;;;6311123;28;20273;-75
2022/01/31 05:58:43;;;;;;;2.43;1.40;;;-0.60;92.60;;;;;;6310317;28;20453;-75
2022/01/31 06:01:49;;;;;;;4.17;1.53;;;-0.60;92.70;;;;;;6310948;28;20275;-75
2022/01/31 06:04:56;;;;;;;3.13;1.63;;;-0.70;93.10;;;;;;6310816;28;20299;-75
2022/01/31 06:08:01;;;;;;;5.40;1.87;;;-0.60;93.00;;;;;;6312190;28;20461;-75
2022/01/31 06:11:06;;;;;;;1.27;1.23;;;-0.60;93.20;;;;;;6316195;28;20271;-75
2022/01/31 06:14:12;;;;;;;2.97;1.27;;;-0.60;93.30;;;;;;6315425;28;20319;-75
2022/01/31 06:17:20;;;;;;;1.53;1.43;;;-0.60;93.00;;;;;;6316452;28;20270;-75
2022/01/31 06:20:25;;;;;;;2.17;1.30;;;-0.60;93.20;;;;;;6314370;28;20275;-76
2022/01/31 06:23:31;;;;;;;3.80;1.40;;;-0.60;93.00;;;;;;6314870;28;20299;-75
2022/01/31 06:26:36;;;;;;;1.80;1.57;;;-0.60;93.10;;;;;;6315502;28;20271;-74
2022/01/31 06:30:02;;;;;;;6.07;1.50;;;-0.50;93.60;;;;;;6313655;28;20305;-74
2022/01/31 06:33:09;;;;;;;1.90;1.60;;;-0.50;93.70;;;;;;6313610;28;20290;-76
2022/01/31 06:36:14;;;;;;;1.57;1.20;;;-0.60;93.40;;;;;;6315453;28;20266;-75
2022/01/31 06:39:20;;;;;;;2.17;1.30;;;-0.60;93.50;;;;;;6315175;28;20294;-76
2022/01/31 06:42:25;;;;;;;1.53;1.23;;;-0.50;93.50;;;;;;6314550;28;20266;-77
2022/01/31 06:45:30;;;;;;;2.00;1.30;;;-0.50;93.60;;;;;;6314801;28;20277;-76
2022/01/31 06:48:43;;;;;;;1.30;1.20;;;-0.50;93.30;;;;;;6314152;28;20302;-76
2022/01/31 06:51:48;;;;;;;1.70;1.60;;;-0.60;93.80;;;;;;6315376;28;20273;-76
2022/01/31 06:54:55;;;;;;;1.60;1.30;;;-0.50;93.80;;;;;;6314245;28;20313;-76
2022/01/31 06:58:00;;;;;;;1.33;1.23;;;-0.50;93.60;;;;;;6314509;28;20296;-76
2022/01/31 07:01:05;;;;;;;1.50;1.40;;;-0.50;93.20;;;;;;6314481;28;20271;-76
2022/01/31 07:04:12;;;;;;;8.27;3.77;;;-0.50;93.50;;;;;;6314317;28;20357;-76
2022/01/31 07:07:18;;;;;;;1.97;1.60;;;-0.50;93.70;;;;;;6313959;28;20274;-76
2022/01/31 07:10:23;;;;;;;1.40;1.30;;;-0.50;93.80;;;;;;6314565;28;20461;-76
2022/01/31 07:13:38;;;;;;;3.90;1.23;;;-0.50;93.80;;;;;;6313976;28;20307;-76
2022/01/31 07:16:44;;;;;;;2.30;1.30;;;-0.50;93.50;;;;;;6314370;28;20481;-76
2022/01/31 07:19:50;;;;;;;1.03;1.03;;;-0.50;93.40;;;;;;6313054;28;20302;-76
2022/01/31 07:23:01;;;;;;;1.07;1.00;;;-0.50;93.50;;;;;;6289184;28;20294;-75
2022/01/31 07:26:07;;;;;;;1.33;1.30;;;-0.60;93.00;;;;;;6288713;28;20273;-77
2022/01/31 07:29:13;;;;;;;1.93;1.30;;;-0.60;93.10;;;;;;6288707;28;20376;-75
2022/01/31 07:32:19;;;;;;;3.27;1.30;;;-0.50;93.30;;;;;;6289256;28;20427;-75
2022/01/31 07:35:26;;;;;;;3.90;1.20;;;-0.50;93.70;;;;;;6288010;28;20298;-75
2022/01/31 07:38:31;;;;;;;1.40;1.30;;;-0.50;93.50;;;;;;6288771;28;20300;-75
2022/01/31 07:41:36;;;;;;;2.37;1.10;;;-0.50;94.00;;;;;;6288432;28;20290;-75
2022/01/31 07:44:43;;;;;;;1.60;1.20;;;-0.40;94.10;;;;;;6288411;28;20304;-75
2022/01/31 07:47:48;;;;;;;1.30;1.20;;;-0.40;93.10;;;;;;6287449;28;20476;-76
2022/01/31 07:50:55;;;;;;;2.30;1.13;;;-0.40;93.30;;;;;;6288206;28;20566;-75
2022/01/31 07:54:00;;;;;;;3.63;1.30;;;-0.50;92.80;;;;;;6288159;28;20305;-75
2022/01/31 07:57:06;;;;;;;2.47;1.23;;;-0.40;93.60;;;;;;6287714;28;20292;-75
2022/01/31 08:00:31;;;;;;;3.30;1.20;;;-0.50;93.10;;;;;;6288093;28;20274;-76
2022/01/31 08:03:38;;;;;;;3.00;1.33;;;-0.40;92.80;;;;;;6287372;28;20307;-75
2022/01/31 08:06:45;;;;;;;2.47;1.50;;;-0.30;92.80;;;;;;6287549;28;20270;-75
2022/01/31 08:09:50;;;;;;;3.40;1.20;;;-0.30;92.80;;;;;;6287582;28;20300;-75
2022/01/31 08:12:56;;;;;;;2.83;1.53;;;-0.40;92.60;;;;;;6287679;28;20292;-75
2022/01/31 08:16:13;;;;;;;1.17;1.07;;;-0.40;92.70;;;;;;6288073;28;20295;-76
2022/01/31 08:19:18;;;;;;;1.43;1.17;;;-0.40;92.90;;;;;;6287282;28;20302;-76
2022/01/31 08:22:45;;;;;;;1.40;1.30;;;-0.40;91.40;;;;;;6287118;28;20275;-76
2022/01/31 08:25:51;;;;;;;2.37;1.27;;;-0.30;92.20;;;;;;6270338;28;20275;-76
2022/01/31 08:28:59;;;;;;;1.17;1.10;;;-0.30;90.90;;;;;;6287928;28;20303;-75
2022/01/31 08:32:33;;;;;;;2.73;1.20;;;-0.30;90.70;;;;;;6285574;28;20270;-76
2022/01/31 08:35:48;;;;;;;1.80;1.30;;;-0.30;91.50;;;;;;6287331;28;20292;-74
2022/01/31 08:38:56;;;;;;;2.53;1.20;;;-0.30;92.10;;;;;;6286745;28;20299;-75
2022/01/31 08:42:01;;;;;;;1.47;1.20;;;-0.30;91.10;;;;;;6269759;28;20449;-74
2022/01/31 08:45:09;;;;;;;1.00;1.00;;;-0.20;91.70;;;;;;6287286;28;20299;-74
2022/01/31 08:48:16;;;;;;;4.17;1.30;;;-0.20;91.60;;;;;;6287070;28;20446;-75
2022/01/31 08:51:21;;;;;;;1.40;1.40;;;-0.20;91.70;;;;;;6286703;28;20275;-75
2022/01/31 08:54:28;;;;;;;1.10;1.10;;;-0.20;91.20;;;;;;6286526;28;20302;-75
2022/01/31 08:57:33;;;;;;;1.73;1.30;;;-0.30;91.60;;;;;;6286670;28;20275;-76
2022/01/31 09:00:39;;;;;;;1.80;1.40;;;-0.30;92.60;;;;;;6286523;28;20274;-76
2022/01/31 09:04:00;;;;;;;1.57;1.53;;;-0.20;91.90;;;;;;6286675;28;20303;-75
2022/01/31 09:07:05;;;;;;;3.87;1.30;;;-0.30;92.30;;;;;;6286706;28;20501;-75
2022/01/31 09:10:12;;;;;;;1.17;1.17;;;-0.20;93.00;;;;;;6286107;28;20338;-75
2022/01/31 09:13:18;;;;;;;1.43;1.03;;;-0.30;92.00;;;;;;6286084;28;20291;-75
2022/01/31 09:16:23;;;;;;;1.23;1.13;;;-0.30;90.80;;;;;;6286712;28;20446;-75
2022/01/31 09:19:29;;;;;;;1.80;1.30;;;-0.30;91.20;;;;;;6286161;28;20296;-75
2022/01/31 09:22:34;;;;;;;1.60;1.40;;;-0.30;91.30;;;;;;6308279;28;20274;-75
2022/01/31 09:25:45;;;;;;;1.60;1.30;;;-0.20;91.10;;;;;;6310854;28;20576;-75
2022/01/31 09:28:52;;;;;;;1.20;1.20;;;-0.30;90.50;;;;;;6310527;28;20297;-74
2022/01/31 09:31:59;;;;;;;1.20;1.10;;;-0.30;90.00;;;;;;6310924;28;20275;-75
2022/01/31 09:35:05;;;;;;;1.20;1.20;;;-0.30;90.10;;;;;;6310554;28;20296;-74
2022/01/31 09:38:16;;;;;;;1.10;1.10;;;-0.40;87.20;;;;;;6310917;28;20290;-75
2022/01/31 09:41:25;;;;;;;1.00;1.00;;;-0.30;87.40;;;;;;6310931;28;20267;-74
2022/01/31 09:44:48;;;;;;;1.53;1.43;;;-0.40;84.70;;;;;;6310949;28;20463;-75
2022/01/31 09:51:19;;;;;;;1.10;1.10;;;-0.30;88.40;;;;;;6310514;28;20276;-75
2022/01/31 09:54:27;;;;;;;1.10;1.10;;;-0.20;90.10;;;;;;6311105;28;20300;-75
2022/01/31 09:57:34;;;;;;;3.50;1.13;;;-0.20;89.80;;;;;;6310499;28;20293;-75
2022/01/31 10:00:39;;;;;;;1.10;1.10;;;-0.20;86.80;;;;;;6311154;28;20299;-75
2022/01/31 10:03:49;;;;;;;1.17;1.17;;;-0.20;87.60;;;;;;6310279;28;20309;-75
2022/01/31 10:06:58;;;;;;;1.00;0.97;;;-0.20;89.20;;;;;;6310929;28;20440;-75
2022/01/31 10:10:21;;;;;;;1.10;1.10;;;-0.20;87.20;;;;;;6310720;28;20298;-75
2022/01/31 10:16:59;;;;;;;1.50;1.23;;;-0.20;86.40;;;;;;6310829;28;20291;-75
2022/01/31 10:20:28;;;;;;;1.20;1.20;;;-0.30;86.70;;;;;;6311089;28;20585;-74
2022/01/31 10:23:42;;;;;;;1.20;1.20;;;-0.30;87.20;;;;;;6310446;28;20299;-74
2022/01/31 10:26:53;;;;;;;1.20;1.20;;;-0.20;85.50;;;;;;6310746;28;20277;-74
2022/01/31 10:30:10;;;;;;;1.10;1.10;;;-0.20;88.10;;;;;;6310184;28;20305;-75
2022/01/31 10:33:18;;;;;;;1.30;1.30;;;-0.20;87.80;;;;;;6310189;28;20289;-75
2022/01/31 10:36:24;;;;;;;1.20;1.10;;;-0.10;88.90;;;;;;6310041;28;20291;-74
2022/01/31 10:43:28;;;;;;;2.30;1.10;;;-0.20;85.70;;;;;;6310074;28;20293;-75
2022/01/31 10:53:18;;;;;;;1.77;1.37;;;-0.20;87.30;;;;;;6310438;28;20298;-75
2022/01/31 10:56:24;;;;;;;1.43;1.33;;;-0.20;87.60;;;;;;6314418;28;20410;-75
2022/01/31 10:59:33;;;;;;;1.10;1.10;;;-0.10;86.90;;;;;;6313862;28;20296;-76
2022/01/31 11:02:39;;;;;;;1.03;1.03;;;-0.10;85.90;;;;;;6314186;28;20399;-76
2022/01/31 11:05:51;;;;;;;2.83;1.20;;;-0.10;83.90;;;;;;6314166;28;20273;-75
2022/01/31 11:09:03;;;;;;;2.47;1.23;;;-0.10;82.20;;;;;;6314019;28;20290;-75
2022/01/31 11:12:14;;;;;;;1.40;1.40;;;-0.10;84.90;;;;;;6314116;28;20271;-76
2022/01/31 11:15:19;;;;;;;1.27;1.27;;;-0.10;83.90;;;;;;6314130;28;20293;-75
2022/01/31 11:18:31;;;;;;;1.60;1.60;;;-0.20;85.70;;;;;;6314501;28;20582;-75
2022/01/31 11:21:39;;;;;;;1.97;1.80;;;-0.20;84.50;;;;;;6314158;28;20269;-75
2022/01/31 11:24:46;;;;;;;1.30;1.27;;;-0.20;84.40;;;;;;6313790;28;20298;-75
2022/01/31 11:27:54;;;;;;;1.23;1.20;;;-0.30;85.20;;;;;;6313677;28;20297;-75
2022/01/31 11:31:01;;;;;;;1.30;1.20;;;-0.30;84.70;;;;;;6312709;28;20281;-75
2022/01/31 11:34:09;;;;;;;1.10;1.10;;;-0.20;86.80;;;;;;6314255;28;20302;-75
2022/01/31 11:37:21;;;;;;;1.40;1.27;;;-0.20;85.40;;;;;;6313313;28;20286;-75
2022/01/31 11:40:27;;;;;;;1.10;1.10;;;-0.10;83.80;;;;;;6313550;28;20278;-75
2022/01/31 11:43:33;;;;;;;1.30;1.30;;;-0.20;84.20;;;;;;6313034;28;20298;-75
2022/01/31 11:46:41;;;;;;;1.20;1.20;;;-0.20;86.00;;;;;;6313140;28;20307;-75
2022/01/31 11:49:52;;;;;;;1.40;1.30;;;-0.30;85.70;;;;;;6313509;28;20302;-75
2022/01/31 11:53:00;;;;;;;1.10;1.10;;;-0.30;87.60;;;;;;6313251;28;20294;-75
2022/01/31 11:56:17;;;;;;;1.23;1.23;;;-0.20;86.90;;;;;;6313821;28;20267;-75
2022/01/31 11:59:23;;;;;;;1.17;1.17;;;-0.30;87.50;;;;;;6312952;28;20291;-75
2022/01/31 12:02:33;;;;;;;1.80;1.00;;;-0.20;87.30;;;;;;6312138;28;20271;-76
2022/01/31 12:05:40;;;;;;;0.97;0.97;;;-0.30;88.00;;;;;;6313054;28;20287;-76
2022/01/31 12:08:47;;;;;;;1.00;1.00;;;-0.30;88.30;;;;;;6312427;28;20307;-76
2022/01/31 12:12:01;;;;;;;4.23;0.90;;;-0.30;87.10;;;;;;6313743;28;20278;-76
2022/01/31 12:15:45;;;;;;;1.00;1.00;;;-0.40;86.50;;;;;;6312870;28;20317;-76
2022/01/31 12:19:04;;;;;;;2.07;1.10;;;-0.40;86.10;;;;;;6311980;28;20302;-75
2022/01/31 12:22:44;;;;;;;1.70;1.00;;;-0.30;87.20;;;;;;6312294;28;20263;-75
2022/01/31 12:25:50;;;;;;;1.20;1.20;;;-0.40;87.70;;;;;;6311821;28;20274;-75
2022/01/31 12:28:56;;;;;;;1.30;1.30;;;-0.40;87.90;;;;;;6312602;28;20316;-75
2022/01/31 12:32:16;;;;;;;1.13;1.13;;;-0.40;89.10;;;;;;6312710;28;20275;-75
2022/01/31 12:35:36;;;;;;;4.00;1.10;;;-0.40;88.40;;;;;;6312570;28;20309;-75
2022/01/31 12:38:43;;;;;;;1.13;1.13;;;-0.30;88.00;;;;;;6312273;28;20302;-75
2022/01/31 12:41:48;;;;;;;1.20;1.20;;;-0.30;88.80;;;;;;6313054;28;20273;-75
2022/01/31 12:44:54;;;;;;;1.33;1.23;;;-0.40;87.70;;;;;;6311514;28;20301;-75
2022/01/31 12:48:15;;;;;;;1.80;1.20;;;-0.50;86.80;;;;;;6311626;28;20299;-75
2022/01/31 12:51:21;;;;;;;2.20;1.40;;;-0.60;85.80;;;;;;6312075;28;20275;-75
2022/01/31 12:54:28;;;;;;;1.40;1.40;;;-0.60;83.80;;;;;;6311391;28;20310;-76
2022/01/31 12:57:33;;;;;;;1.10;1.10;;;-0.50;86.00;;;;;;6311235;28;20608;-76
2022/01/31 13:00:44;;;;;;;1.20;1.20;;;-0.50;84.10;;;;;;6312145;28;20270;-75
2022/01/31 13:04:14;;;;;;;1.40;1.40;;;-0.60;86.00;;;;;;6311157;28;20296;-75
2022/01/31 13:07:19;;;;;;;2.33;1.10;;;-0.60;87.70;;;;;;6312007;28;20273;-76
2022/01/31 13:10:40;;;;;;;1.13;1.13;;;-0.60;87.70;;;;;;6311671;28;20362;-75
2022/01/31 13:13:46;;;;;;;1.00;1.00;;;-0.70;89.80;;;;;;6311118;28;20501;-75
2022/01/31 13:17:00;;;;;;;1.00;1.00;;;-0.60;88.40;;;;;;6311227;28;20282;-76
2022/01/31 13:20:08;;;;;;;2.00;1.00;;;-0.70;88.80;;;;;;6311090;28;20303;-75
2022/01/31 13:23:16;;;;;;;2.00;1.47;;;-0.70;90.20;;;;;;6311278;28;20298;-76
2022/01/31 13:26:22;;;;;;;1.30;1.30;;;-0.80;89.10;;;;;;6310865;28;20273;-75
2022/01/31 13:29:31;;;;;;;1.47;1.37;;;-0.80;88.30;;;;;;6310794;28;20305;-75
2022/01/31 13:32:38;;;;;;;1.00;1.00;;;-0.80;89.00;;;;;;6310381;28;20294;-76
2022/01/31 13:35:44;;;;;;;1.30;1.20;;;-0.80;86.80;;;;;;6311811;28;20266;-76
2022/01/31 13:38:49;;;;;;;1.20;1.20;;;-0.80;87.60;;;;;;6311025;28;20299;-75
2022/01/31 13:41:56;;;;;;;1.70;1.70;;;-0.80;86.60;;;;;;6310629;28;20274;-76
2022/01/31 13:45:03;;;;;;;1.00;1.00;;;-0.90;87.20;;;;;;6310202;28;20606;-76
2022/01/31 13:48:26;;;;;;;1.30;1.30;;;-0.90;87.50;;;;;;6310418;28;20299;-74
2022/01/31 13:51:36;;;;;;;2.03;1.50;;;-0.80;88.20;;;;;;6311159;28;20267;-75
2022/01/31 13:54:42;;;;;;;2.67;1.50;;;-0.80;88.30;;;;;;6310470;28;20302;-74
2022/01/31 13:57:50;;;;;;;1.30;1.20;;;-0.80;88.40;;;;;;6309904;28;20298;-76
2022/01/31 14:00:56;;;;;;;1.40;1.40;;;-0.80;86.70;;;;;;6311612;28;20430;-76
2022/01/31 14:04:02;;;;;;;1.73;1.63;;;-0.80;85.10;;;;;;6310592;28;20300;-76
2022/01/31 14:07:24;;;;;;;1.77;1.43;;;-0.90;86.70;;;;;;6311589;28;20274;-77
2022/01/31 14:10:31;;;;;;;1.50;1.50;;;-0.90;85.50;;;;;;6309570;28;20293;-76
2022/01/31 14:13:41;;;;;;;1.30;1.30;;;-0.90;86.80;;;;;;6309660;28;20297;-77
2022/01/31 14:16:47;;;;;;;2.37;1.50;;;-0.90;84.70;;;;;;6311134;28;20273;-76
2022/01/31 14:19:54;;;;;;;1.37;1.37;;;-0.90;84.00;;;;;;6310624;28;20556;-76
2022/01/31 14:23:03;;;;;;;1.20;1.20;;;-1.00;85.50;;;;;;6309962;28;20298;-76
2022/01/31 14:26:12;;;;;;;1.53;1.43;;;-1.00;86.00;;;;;;6310428;28;20274;-76
2022/01/31 14:29:19;;;;;;;2.17;1.37;;;-1.00;85.70;;;;;;6311999;28;20310;-76
2022/01/31 14:32:25;;;;;;;1.40;1.40;;;-1.00;86.30;;;;;;6316038;28;20427;-76
2022/01/31 14:35:30;;;;;;;2.77;1.63;;;-1.00;86.30;;;;;;6314184;28;20277;-76
2022/01/31 14:38:43;;;;;;;1.37;1.37;;;-1.00;84.90;;;;;;6314621;28;20305;-76
2022/01/31 14:41:57;;;;;;;1.50;1.50;;;-1.00;86.00;;;;;;6315938;28;20278;-76
2022/01/31 14:48:32;;;;;;;1.37;1.37;;;-1.00;85.50;;;;;;6289870;28;20301;-75
2022/01/31 14:51:39;;;;;;;1.67;1.27;;;-1.10;84.50;;;;;;6290463;28;20271;-76
2022/01/31 14:54:59;;;;;;;1.57;1.57;;;-1.10;84.70;;;;;;6290093;28;20298;-76
2022/01/31 14:58:05;;;;;;;1.50;1.40;;;-1.10;83.60;;;;;;6289961;28;20289;-76
2022/01/31 15:01:12;;;;;;;1.60;1.60;;;-1.10;83.30;;;;;;6289430;28;20479;-76
2022/01/31 15:04:20;;;;;;;1.70;1.60;;;-1.20;82.70;;;;;;6290397;28;20303;-76
2022/01/31 15:07:25;;;;;;;1.63;1.50;;;-1.20;83.50;;;;;;6289326;28;20271;-76
2022/01/31 15:10:32;;;;;;;1.80;1.80;;;-1.30;82.70;;;;;;6290141;28;20282;-75
2022/01/31 15:13:39;;;;;;;1.50;1.50;;;-1.30;82.20;;;;;;6288910;28;20297;-75
2022/01/31 15:16:46;;;;;;;1.27;1.27;;;-1.30;82.30;;;;;;6290200;28;20270;-75
2022/01/31 15:19:51;;;;;;;1.70;1.60;;;-1.40;82.70;;;;;;6289616;28;20302;-75
2022/01/31 15:22:57;;;;;;;1.40;1.40;;;-1.40;84.90;;;;;;6288510;28;20290;-75
2022/01/31 15:26:02;;;;;;;1.33;1.30;;;-1.50;83.50;;;;;;6289757;28;20280;-75
2022/01/31 15:29:07;;;;;;;1.60;1.60;;;-1.50;83.60;;;;;;6288759;28;20302;-75
2022/01/31 15:32:15;;;;;;;2.30;1.60;;;-1.50;84.20;;;;;;6286381;28;20392;-75
2022/01/31 15:35:20;;;;;;;1.53;1.53;;;-1.50;83.10;;;;;;6289305;28;20302;-75
2022/01/31 15:38:27;;;;;;;1.67;1.67;;;-1.60;84.60;;;;;;6289276;28;20565;-74
2022/01/31 15:41:34;;;;;;;1.50;1.50;;;-1.60;81.60;;;;;;6288411;28;20290;-74
2022/01/31 15:44:41;;;;;;;1.77;1.67;;;-1.60;82.30;;;;;;6288610;28;20314;-74
2022/01/31 15:47:48;;;;;;;1.90;1.70;;;-1.60;83.50;;;;;;6303503;28;20577;-75
2022/01/31 15:50:54;;;;;;;1.57;1.50;;;-1.60;82.90;;;;;;6289159;28;20293;-75
2022/01/31 15:54:00;;;;;;;1.70;1.47;;;-1.60;83.40;;;;;;6288423;28;20300;-75
2022/01/31 15:57:05;;;;;;;1.57;1.57;;;-1.60;83.90;;;;;;6288690;28;20298;-75
2022/01/31 16:00:17;;;;;;;1.60;1.50;;;-1.60;83.00;;;;;;6288412;28;20297;-75
2022/01/31 16:03:26;;;;;;;2.50;1.47;;;-1.60;83.80;;;;;;6287789;28;20310;-75
2022/01/31 16:06:31;;;;;;;1.60;1.60;;;-1.60;83.30;;;;;;6288404;28;20275;-75
2022/01/31 16:09:37;;;;;;;1.60;1.60;;;-1.70;83.30;;;;;;6287199;28;20305;-75
2022/01/31 16:12:44;;;;;;;1.57;1.47;;;-1.70;85.70;;;;;;6287597;28;20270;-75
2022/01/31 16:15:52;;;;;;;1.50;1.50;;;-1.70;85.90;;;;;;6288372;28;20364;-75
2022/01/31 16:18:59;;;;;;;1.50;1.50;;;-1.70;84.80;;;;;;6287122;28;20588;-75
2022/01/31 16:22:05;;;;;;;1.83;1.83;;;-1.70;85.80;;;;;;6287558;28;20597;-75
2022/01/31 16:25:12;;;;;;;2.10;1.60;;;-1.70;85.30;;;;;;6287189;28;20305;-74
2022/01/31 16:28:20;;;;;;;1.40;1.40;;;-1.60;84.70;;;;;;6295129;28;20306;-75
2022/01/31 16:31:26;;;;;;;1.30;1.30;;;-1.70;82.10;;;;;;6312414;28;20341;-75
2022/01/31 16:34:32;;;;;;;1.73;1.73;;;-1.70;80.90;;;;;;6311928;28;20291;-75
2022/01/31 16:37:38;;;;;;;1.73;1.73;;;-1.70;81.80;;;;;;6312417;28;20651;-74
2022/01/31 16:40:47;;;;;;;1.33;1.33;;;-1.70;84.80;;;;;;6312040;28;20292;-75
2022/01/31 16:43:52;;;;;;;1.67;1.60;;;-1.60;85.10;;;;;;6311613;28;20294;-75